Time;durP1;ratioP1;P1;durP2;ratioP2;P2;SDS_P1;SDS_P2;PMS_P1;PMS_P2;Temp;Humidity;BMP_temperature;BMP_pressure;BME280_temperature;BME280_humidity;BME280_pressure;Samples;Min_cycle;Max_cycle;Signal;HPM_P1;HPM_P2
2024/03/06 01:31:17;;;;;;;27.15;5.40;;;;;;;4.92;100.00;100418.41;5528611;23;20072;-96
2024/03/06 01:40:55;;;;;;;27.50;5.15;;;;;;;4.93;100.00;100419.25;4856907;29;20053;-96
2024/03/06 01:43:55;;;;;;;36.65;7.82;;;;;;;4.90;100.00;100416.84;4840226;29;20025;-96
2024/03/06 01:47:15;;;;;;;33.50;5.75;;;;;;;4.90;100.00;100409.00;4830972;29;20112;-96
2024/03/06 01:51:26;;;;;;;21.48;4.00;;;;;;;4.95;100.00;100410.31;4839820;29;20167;-96
2024/03/06 01:53:40;;;;;;;21.13;3.33;;;;;;;4.91;100.00;100408.88;4823165;29;20050;-96
2024/03/06 01:56:11;;;;;;;27.55;3.33;;;;;;;4.99;100.00;100417.97;4840955;29;20098;-96
2024/03/06 02:04:26;;;;;;;15.07;4.70;;;;;;;4.65;100.00;100397.63;5739109;23;20163;-96
2024/03/06 02:08:00;;;;;;;;;;;;;;;;;;;;;
2024/03/06 02:14:03;;;;;;;97.10;5.07;;;;;;;4.17;100.00;100402.53;5833190;24;20121;-96
2024/03/06 02:18:09;;;;;;;8.57;3.33;;;;;;;4.26;100.00;100402.88;4815731;29;20061;-96
2024/03/06 02:21:21;;;;;;;17.92;4.07;;;;;;;4.20;100.00;100397.09;4753472;29;20053;-96
2024/03/06 02:23:48;;;;;;;18.92;5.38;;;;;;;4.22;100.00;100399.63;4847026;29;20026;-96
2024/03/06 02:29:49;;;;;;;13.27;3.83;;;;;;;4.27;100.00;100402.75;4849953;29;20064;-96
2024/03/06 02:36:22;;;;;;;17.17;3.38;;;;;;;4.22;100.00;100387.38;4798589;29;20053;-96
2024/03/06 02:45:41;;;;;;;14.57;3.20;;;;;;;4.16;100.00;100384.31;4856133;29;20038;-96
2024/03/06 02:48:10;;;;;;;14.68;3.80;;;;;;;4.19;100.00;100389.34;4817431;29;20034;-96
2024/03/06 02:51:06;;;;;;;24.77;3.80;;;;;;;4.26;100.00;100382.78;4819062;29;20052;-96
2024/03/06 02:54:01;;;;;;;24.25;4.72;;;;;;;4.25;100.00;100375.88;4835625;29;20037;-96
2024/03/06 02:57:17;;;;;;;;;;;;;;;;;;;;;
2024/03/06 03:00:28;;;;;;;11.38;3.65;;;;;;;4.11;100.00;100368.13;4865233;29;20045;-96
2024/03/06 03:02:54;;;;;;;11.65;3.88;;;;;;;4.04;100.00;100362.47;4819564;29;20046;-97
2024/03/06 03:05:20;;;;;;;10.48;4.47;;;;;;;3.99;100.00;100360.16;4834746;29;20053;-96
2024/03/06 03:12:01;;;;;;;11.88;3.40;;;;;;;3.80;100.00;100363.16;4782199;29;20059;-96
2024/03/06 03:14:40;;;;;;;11.27;3.80;;;;;;;3.73;100.00;100357.50;4831690;29;20066;-96
2024/03/06 03:17:49;;;;;;;11.00;2.95;;;;;;;3.66;100.00;100357.09;4837999;29;20040;-96
2024/03/06 03:21:40;;;;;;;15.18;2.90;;;;;;;3.66;100.00;100361.47;4849518;29;20042;-96
2024/03/06 03:28:22;;;;;;;13.52;2.90;;;;;;;3.53;100.00;100353.59;4829329;29;20050;-96
2024/03/06 03:35:39;;;;;;;18.40;3.22;;;;;;;3.55;100.00;100354.34;4796848;29;20153;-96
2024/03/06 03:38:48;;;;;;;10.63;2.97;;;;;;;3.60;100.00;100352.25;4793070;29;20058;-96
2024/03/06 03:41:29;;;;;;;19.48;3.22;;;;;;;3.57;100.00;100350.69;4793196;29;20054;-96
2024/03/06 03:43:57;;;;;;;12.23;3.33;;;;;;;3.52;100.00;100341.50;4822049;29;20081;-96
2024/03/06 03:46:49;;;;;;;15.95;3.70;;;;;;;3.55;100.00;100339.47;4828769;29;20085;-96
2024/03/06 03:49:16;;;;;;;11.35;2.70;;;;;;;3.43;100.00;100337.69;4849745;29;20041;-96
2024/03/06 03:53:04;;;;;;;12.43;2.65;;;;;;;3.42;100.00;100333.41;4821695;29;20086;-96
2024/03/06 04:01:50;;;;;;;19.27;3.80;;;;;;;3.30;100.00;100321.97;5379084;23;20056;-96
2024/03/06 04:10:00;;;;;;;;;;;;;;;;;;;;;
2024/03/06 04:17:26;;;;;;;21.17;4.07;;;;;;;3.84;100.00;100310.56;5004142;23;20052;-96
2024/03/06 04:23:27;;;;;;;21.05;3.30;;;;;;;4.18;100.00;100322.28;4865533;29;20062;-96
2024/03/06 04:26:48;;;;;;;16.65;2.60;;;;;;;4.39;100.00;100317.34;4845922;29;20058;-96
2024/03/06 04:29:23;;;;;;;28.38;3.33;;;;;;;4.49;100.00;100317.53;4836855;29;20071;-96
2024/03/06 04:31:49;;;;;;;21.98;3.70;;;;;;;4.58;100.00;100318.66;4851355;29;20053;-96
2024/03/06 04:34:47;;;;;;;37.05;5.35;;;;;;;4.80;100.00;100325.84;4838580;29;20037;-96
2024/03/06 04:37:52;;;;;;;15.18;1.95;;;;;;;4.94;100.00;100331.84;4884921;29;20064;-96
2024/03/06 04:44:23;;;;;;;21.60;2.80;;;;;;;5.12;100.00;100329.69;4877868;29;20037;-96
2024/03/06 04:47:51;;;;;;;21.60;2.30;;;;;;;5.32;100.00;100330.00;4862328;29;20049;-96
2024/03/06 04:50:57;;;;;;;22.27;3.70;;;;;;;5.45;100.00;100333.41;4886928;29;20045;-96
2024/03/06 04:58:04;;;;;;;16.08;2.17;;;;;;;5.75;100.00;100333.03;4861466;29;20036;-96
2024/03/06 05:08:46;;;;;;;15.95;2.42;;;;;;;5.96;100.00;100326.16;4878837;29;20125;-93
2024/03/06 05:11:13;;;;;;;22.35;3.13;;;;;;;6.09;100.00;100338.34;4846166;29;20041;-92
2024/03/06 05:13:42;;;;;;;25.58;2.95;;;;;;;6.11;100.00;100323.34;4843760;29;20141;-90
2024/03/06 05:16:10;;;;;;;17.83;2.38;;;;;;;6.24;100.00;100341.59;4827830;29;20132;-93
2024/03/06 05:19:32;;;;;;;20.83;2.92;;;;;;;6.27;100.00;100340.53;4830388;29;20045;-93
2024/03/06 05:22:31;;;;;;;20.35;2.17;;;;;;;6.28;100.00;100332.53;4856462;29;20056;-92
2024/03/06 05:25:07;;;;;;;16.55;2.20;;;;;;;6.33;100.00;100337.41;4855528;29;20083;-92
2024/03/06 05:27:33;;;;;;;19.73;2.55;;;;;;;6.28;100.00;100322.03;4830784;29;20056;-92
2024/03/06 05:30:49;;;;;;;23.02;2.53;;;;;;;6.35;100.00;100324.19;4846226;29;20041;-92
2024/03/06 05:33:33;;;;;;;19.10;2.58;;;;;;;6.32;100.00;100333.94;4834020;29;20044;-93
2024/03/06 05:36:02;;;;;;;21.92;2.08;;;;;;;6.34;100.00;100325.97;4844549;29;20041;-93
2024/03/06 05:38:28;;;;;;;17.52;2.53;;;;;;;6.30;100.00;100314.03;4839424;29;20041;-92
2024/03/06 05:40:59;;;;;;;19.42;2.65;;;;;;;6.37;100.00;100332.78;4845102;29;20052;-92
2024/03/06 05:43:28;;;;;;;25.58;2.42;;;;;;;6.38;100.00;100324.78;4853786;29;20144;-91
2024/03/06 05:45:54;;;;;;;25.20;2.55;;;;;;;6.33;100.00;100322.50;4847361;29;20258;-88
2024/03/06 05:48:24;;;;;;;18.98;2.47;;;;;;;6.39;100.00;100322.97;4831609;29;20042;-89
2024/03/06 05:50:50;;;;;;;23.13;2.72;;;;;;;6.43;100.00;100319.97;4847848;29;20097;-93
2024/03/06 05:53:42;;;;;;;22.85;2.80;;;;;;;6.49;100.00;100325.72;4851899;29;20071;-92
2024/03/06 05:56:23;;;;;;;23.23;2.53;;;;;;;6.49;100.00;100330.97;4862270;29;20033;-91
2024/03/06 05:58:58;;;;;;;16.77;2.33;;;;;;;6.51;100.00;100308.91;4848323;29;20041;-92
2024/03/06 06:01:54;;;;;;;25.17;3.28;;;;;;;6.50;100.00;100325.59;4833715;29;20037;-91
2024/03/06 06:04:46;;;;;;;24.52;3.35;;;;;;;6.56;100.00;100321.66;4822770;29;20045;-94
2024/03/06 06:07:17;;;;;;;22.60;2.63;;;;;;;6.54;100.00;100321.78;4850240;29;20653;-94
2024/03/06 06:09:46;;;;;;;17.70;2.47;;;;;;;6.55;100.00;100320.81;4824791;29;20652;-92
2024/03/06 06:15:30;;;;;;;20.08;2.45;;;;;;;6.60;100.00;100338.84;4869954;29;20075;-93
2024/03/06 06:18:08;;;;;;;21.38;2.72;;;;;;;6.61;100.00;100329.19;4841986;29;20038;-93
2024/03/06 06:20:38;;;;;;;32.03;3.70;;;;;;;6.56;100.00;100338.25;4836262;29;20116;-93
2024/03/06 06:26:20;;;;;;;24.15;3.03;;;;;;;6.55;100.00;100328.69;4857477;29;20037;-90
2024/03/06 06:32:03;;;;;;;19.45;3.10;;;;;;;6.66;100.00;100329.63;4839080;29;20049;-94
2024/03/06 06:34:56;;;;;;;25.02;3.33;;;;;;;6.61;100.00;100332.63;4879708;29;20559;-92
2024/03/06 06:37:57;;;;;;;20.67;2.80;;;;;;;6.67;100.00;100328.69;4862095;29;20037;-93
2024/03/06 06:40:46;;;;;;;21.95;2.20;;;;;;;6.72;100.00;100331.78;4833419;29;20101;-93
2024/03/06 06:43:47;;;;;;;24.40;2.88;;;;;;;6.68;100.00;100319.84;4840940;29;20432;-94
2024/03/06 06:46:17;;;;;;;14.90;3.22;;;;;;;6.64;100.00;100331.56;4848924;29;20120;-91
2024/03/06 06:49:20;;;;;;;17.08;2.63;;;;;;;6.68;100.00;100327.72;4870908;29;20033;-92
2024/03/06 06:52:12;;;;;;;18.08;3.22;;;;;;;6.77;100.00;100340.13;4849298;29;20132;-91
2024/03/06 06:54:51;;;;;;;17.63;2.97;;;;;;;6.78;100.00;100339.19;4848873;29;20091;-94
2024/03/06 06:57:17;;;;;;;19.42;2.85;;;;;;;6.72;100.00;100321.25;4861354;29;20025;-92
2024/03/06 06:59:45;;;;;;;24.92;2.30;;;;;;;6.79;100.00;100346.09;4857283;29;20056;-93
2024/03/06 07:02:17;;;;;;;20.13;2.95;;;;;;;6.73;100.00;100335.25;4850049;29;20036;-91
2024/03/06 07:05:02;;;;;;;14.38;2.28;;;;;;;6.77;100.00;100340.13;4840176;29;20045;-91
2024/03/06 07:07:31;;;;;;;18.80;2.55;;;;;;;6.75;100.00;100339.44;4845761;29;20100;-92
2024/03/06 07:10:23;;;;;;;22.05;3.00;;;;;;;6.79;100.00;100334.75;4875066;29;20124;-93
2024/03/06 07:12:57;;;;;;;24.40;3.03;;;;;;;6.72;100.00;100337.03;4822753;29;20116;-92
2024/03/06 07:15:44;;;;;;;16.85;2.53;;;;;;;6.78;100.00;100336.56;4865069;29;20073;-92
2024/03/06 07:18:21;;;;;;;21.40;2.50;;;;;;;6.78;100.00;100343.59;4823504;29;20074;-93
2024/03/06 07:20:52;;;;;;;17.25;2.60;;;;;;;6.71;100.00;100353.75;4841637;29;20041;-89
2024/03/06 07:23:35;;;;;;;18.95;2.97;;;;;;;6.75;100.00;100334.19;4849298;29;20049;-93
2024/03/06 07:26:19;;;;;;;16.92;2.60;;;;;;;6.77;100.00;100339.31;4848992;29;20097;-95
2024/03/06 07:28:45;;;;;;;15.90;2.45;;;;;;;6.77;100.00;100358.50;4850323;29;20072;-93
2024/03/06 07:31:11;;;;;;;21.42;3.10;;;;;;;6.77;100.00;100352.44;4860613;29;20037;-89
2024/03/06 07:33:49;;;;;;;28.85;3.30;;;;;;;6.85;100.00;100350.03;4876342;29;20048;-95
2024/03/06 07:36:37;;;;;;;12.70;2.25;;;;;;;6.82;100.00;100342.38;4832540;29;20029;-91
2024/03/06 07:39:04;;;;;;;14.53;2.40;;;;;;;6.82;100.00;100340.59;4832527;29;20043;-92
2024/03/06 07:41:37;;;;;;;13.30;2.28;;;;;;;6.85;100.00;100344.78;4849737;29;20452;-93
2024/03/06 07:44:32;;;;;;;19.27;4.00;;;;;;;6.88;100.00;100355.03;4852582;29;20660;-95
2024/03/06 07:47:10;;;;;;;34.00;3.80;;;;;;;6.91;100.00;100354.78;4849975;29;20044;-94
2024/03/06 07:51:13;;;;;;;;;;;;;;;;;;;;;
2024/03/06 07:53:57;;;;;;;19.83;2.55;;;;;;;6.97;100.00;100357.88;4877521;29;20076;-96
2024/03/06 07:57:07;;;;;;;22.52;3.72;;;;;;;6.97;100.00;100355.25;4858374;29;20048;-95
2024/03/06 08:03:40;;;;;;;22.70;3.45;;;;;;;6.98;100.00;100354.28;4848347;29;20052;-93
2024/03/06 08:06:25;;;;;;;20.10;2.72;;;;;;;6.99;100.00;100343.66;4846321;29;20045;-93
2024/03/06 08:08:53;;;;;;;23.83;2.50;;;;;;;6.97;100.00;100350.84;4838655;29;20097;-92
2024/03/06 08:11:45;;;;;;;19.88;3.13;;;;;;;7.01;100.00;100340.91;4826310;29;20871;-93
2024/03/06 08:15:49;;;;;;;22.75;4.40;;;;;;;7.04;100.00;100346.75;4871645;29;20052;-90
2024/03/06 08:18:37;;;;;;;20.15;2.78;;;;;;;7.06;100.00;100352.72;4866553;29;20388;-91
2024/03/06 08:21:06;;;;;;;18.38;3.33;;;;;;;6.96;100.00;100343.91;4874979;29;20063;-95
2024/03/06 08:25:02;;;;;;;20.10;3.08;;;;;;;7.03;100.00;100350.34;4869202;29;20047;-93
2024/03/06 08:31:53;;;;;;;;;;;;;;;6.93;100.00;100350.25;4865220;29;20057;-91
2024/03/06 08:34:34;;;;;;;24.55;3.35;;;;;;;6.98;100.00;100365.66;4844186;29;19923;-91
2024/03/06 08:37:30;;;;;;;22.60;3.13;;;;;;;6.97;100.00;100358.72;4846802;29;20048;-96
2024/03/06 08:40:20;;;;;;;20.60;2.90;;;;;;;6.95;100.00;100364.13;4797068;29;20038;-90
2024/03/06 08:42:49;;;;;;;32.42;3.97;;;;;;;7.00;100.00;100360.28;4768869;30;20055;-93
2024/03/06 08:45:46;;;;;;;25.88;3.20;;;;;;;6.93;100.00;100345.00;4759608;29;20115;-91
2024/03/06 08:48:14;;;;;;;23.38;3.28;;;;;;;7.01;100.00;100360.16;4753723;30;20043;-93
2024/03/06 08:50:43;;;;;;;37.00;4.05;;;;;;;6.99;100.00;100345.47;4769868;30;20055;-94
2024/03/06 08:58:08;;;;;;;;;;;;;;;;;;;;;
2024/03/06 09:01:21;;;;;;;22.10;2.85;;;;;;;7.09;100.00;100370.03;4744755;30;20047;-94
2024/03/06 09:04:18;;;;;;;16.55;2.55;;;;;;;7.13;100.00;100360.97;4781622;29;20186;-92
2024/03/06 09:07:41;;;;;;;28.63;3.10;;;;;;;7.22;100.00;100366.41;4829647;29;20042;-96
2024/03/06 09:10:08;;;;;;;15.90;2.63;;;;;;;7.25;100.00;100380.16;4810231;29;20794;-89
2024/03/06 09:19:26;;;;;;;15.70;2.88;;;;;;;7.47;100.00;100383.66;4779279;30;20070;-94
2024/03/06 09:30:55;;;;;;;20.35;2.30;;;;;;;7.60;100.00;100387.94;4788321;29;20050;-93
2024/03/06 09:33:30;;;;;;;16.27;2.33;;;;;;;7.66;100.00;100384.81;4800622;29;20049;-93
2024/03/06 09:40:24;;;;;;;21.05;2.80;;;;;;;7.81;100.00;100374.78;4817421;29;20144;-95
2024/03/06 09:42:59;;;;;;;18.98;3.00;;;;;;;7.91;100.00;100375.69;4801078;29;20055;-91
2024/03/06 09:45:25;;;;;;;14.73;2.22;;;;;;;7.87;100.00;100376.09;4786618;29;20058;-88
2024/03/06 09:47:52;;;;;;;23.10;2.83;;;;;;;7.91;100.00;100370.44;4792120;29;20061;-91
2024/03/06 09:50:46;;;;;;;16.17;2.30;;;;;;;7.98;100.00;100375.19;4802037;29;20051;-93
2024/03/06 09:53:32;;;;;;;12.05;1.95;;;;;;;8.05;100.00;100384.22;4824460;29;20716;-95
2024/03/06 09:56:46;;;;;;;15.90;1.75;;;;;;;8.08;100.00;100370.81;4830591;29;20069;-96
2024/03/06 09:59:15;;;;;;;14.80;1.90;;;;;;;8.00;100.00;100376.72;4830981;29;21518;-89
2024/03/06 10:11:03;;;;;;;15.95;2.17;;;;;;;8.21;100.00;100375.03;4799069;29;20424;-95
2024/03/06 10:13:45;;;;;;;21.63;3.60;;;;;;;8.24;100.00;100375.59;4787669;29;20043;-93
2024/03/06 10:16:47;;;;;;;14.57;2.00;;;;;;;8.29;100.00;100376.06;4774702;29;20047;-96
2024/03/06 10:20:04;;;;;;;18.85;2.78;;;;;;;8.35;100.00;100373.84;4802241;29;20039;-89
2024/03/06 10:22:43;;;;;;;10.57;2.05;;;;;;;8.23;100.00;100355.50;4801089;29;20460;-95
2024/03/06 10:25:46;;;;;;;8.63;1.77;;;;;;;8.37;100.00;100370.13;4790619;29;20074;-93
2024/03/06 10:28:33;;;;;;;10.25;2.17;;;;;;;8.46;100.00;100381.66;4857424;29;20061;-94
2024/03/06 10:31:08;;;;;;;12.35;2.72;;;;;;;8.43;100.00;100366.97;4875654;29;20037;-92
2024/03/06 10:34:09;;;;;;;12.73;2.13;;;;;;;8.50;100.00;100369.06;4838233;29;20033;-94
2024/03/06 10:36:37;;;;;;;10.88;1.80;;;;;;;8.47;100.00;100367.53;4835592;29;20056;-94
2024/03/06 10:39:14;;;;;;;12.38;1.88;;;;;;;8.49;100.00;100370.84;4861933;29;20037;-92
2024/03/06 10:41:51;;;;;;;9.63;1.88;;;;;;;8.50;100.00;100366.44;4847798;29;21320;-93
2024/03/06 10:44:36;;;;;;;11.55;1.92;;;;;;;8.52;100.00;100370.59;4863829;29;20068;-94
2024/03/06 10:47:09;;;;;;;8.25;1.63;;;;;;;8.60;100.00;100364.69;4881034;29;20662;-93
2024/03/06 10:49:50;;;;;;;;;;;;;;;;;;;;;
2024/03/06 10:52:59;;;;;;;9.98;1.67;;;;;;;8.59;100.00;100368.28;4875607;29;20051;-90
2024/03/06 10:55:57;;;;;;;10.48;1.60;;;;;;;8.63;100.00;100361.78;4846963;29;20064;-96
2024/03/06 10:59:34;;;;;;;17.08;2.42;;;;;;;8.58;100.00;100360.53;4846873;29;20076;-91
2024/03/06 11:02:10;;;;;;;14.55;2.28;;;;;;;8.59;100.00;100367.44;4818945;29;20089;-95
2024/03/06 11:04:48;;;;;;;14.90;2.95;;;;;;;8.54;100.00;100362.56;4862682;29;20053;-93
2024/03/06 11:07:20;;;;;;;17.17;2.40;;;;;;;8.58;100.00;100376.34;4833637;29;20045;-94
2024/03/06 11:09:50;;;;;;;15.45;2.85;;;;;;;8.50;100.00;100369.91;4863011;29;20526;-92
2024/03/06 11:13:04;;;;;;;25.88;2.95;;;;;;;8.56;100.00;100371.19;4850717;29;20037;-96
2024/03/06 11:15:50;;;;;;;22.08;2.55;;;;;;;8.56;100.00;100374.69;4829857;29;20037;-93
2024/03/06 11:18:29;;;;;;;19.85;3.22;;;;;;;8.55;100.00;100374.81;4864637;29;20051;-91
2024/03/06 11:21:10;;;;;;;21.25;3.40;;;;;;;8.54;100.00;100376.59;4862754;29;20068;-91
2024/03/06 11:30:17;;;;;;;25.85;3.67;;;;;;;8.48;100.00;100382.38;4860349;29;20053;-92
2024/03/06 11:33:22;;;;;;;23.88;3.33;;;;;;;8.54;100.00;100383.63;4836533;29;20057;-92
2024/03/06 11:36:34;;;;;;;29.65;3.85;;;;;;;8.52;100.00;100386.41;4858076;29;20408;-93
2024/03/06 11:39:17;;;;;;;29.02;3.72;;;;;;;8.56;100.00;100389.63;4837930;29;20049;-93
2024/03/06 11:42:21;;;;;;;24.25;3.80;;;;;;;8.56;100.00;100384.38;4862921;29;20048;-96
2024/03/06 11:45:22;;;;;;;22.58;3.97;;;;;;;8.61;100.00;100383.97;4830707;29;20052;-96
2024/03/06 11:48:02;;;;;;;25.75;5.47;;;;;;;8.66;100.00;100394.94;4835695;29;20037;-96
2024/03/06 11:50:43;;;;;;;26.70;4.13;;;;;;;8.69;100.00;100397.31;4829647;29;20037;-92
2024/03/06 11:53:17;;;;;;;28.52;3.58;;;;;;;8.68;100.00;100390.38;4872899;29;20033;-93
2024/03/06 11:55:58;;;;;;;24.88;3.67;;;;;;;8.75;100.00;100386.25;4859470;29;20507;-90
2024/03/06 11:58:24;;;;;;;25.92;4.07;;;;;;;8.68;100.00;100385.09;4828816;29;20065;-91
2024/03/06 12:00:53;;;;;;;33.65;4.55;;;;;;;8.69;100.00;100384.97;4828600;29;20060;-91
2024/03/06 12:03:36;;;;;;;25.75;3.90;;;;;;;8.69;100.00;100392.06;4839365;29;20388;-93
2024/03/06 12:06:22;;;;;;;28.70;4.40;;;;;;;8.75;100.00;100380.13;4860696;29;20048;-94
2024/03/06 12:09:15;;;;;;;35.03;4.65;;;;;;;8.80;100.00;100388.47;4861288;29;20044;-94
2024/03/06 12:11:45;;;;;;;21.70;3.40;;;;;;;8.79;100.00;100389.44;4854334;29;20061;-94
2024/03/06 12:14:33;;;;;;;32.83;4.55;;;;;;;8.89;100.00;100384.19;4830250;29;20128;-96
2024/03/06 12:17:30;;;;;;;21.85;3.47;;;;;;;8.88;100.00;100383.38;4843172;29;20048;-94
2024/03/06 12:20:45;;;;;;;30.30;4.07;;;;;;;8.98;100.00;100379.94;4864471;29;20118;-95
2024/03/06 12:23:46;;;;;;;37.35;4.80;;;;;;;9.05;100.00;100376.59;4839120;29;20061;-96
2024/03/06 12:26:23;;;;;;;31.55;4.25;;;;;;;9.15;100.00;100387.19;4832902;29;20520;-94
2024/03/06 12:29:09;;;;;;;27.25;3.53;;;;;;;9.18;100.00;100384.25;4873045;29;20093;-87
2024/03/06 12:31:46;;;;;;;31.98;4.43;;;;;;;9.26;100.00;100382.72;4846158;29;20064;-92
2024/03/06 12:34:20;;;;;;;35.17;4.53;;;;;;;9.16;100.00;100373.00;4850905;29;20061;-93
2024/03/06 12:36:50;;;;;;;23.75;3.78;;;;;;;9.28;100.00;100379.00;4867410;29;20100;-92
2024/03/06 12:39:25;;;;;;;38.03;5.55;;;;;;;9.33;100.00;100383.88;4848189;29;20033;-94
2024/03/06 12:42:06;;;;;;;23.80;4.10;;;;;;;9.38;100.00;100379.00;4832296;29;20128;-96
2024/03/06 12:44:38;;;;;;;28.95;4.65;;;;;;;9.43;100.00;100352.19;4855094;29;20045;-88
2024/03/06 12:47:10;;;;;;;28.08;4.47;;;;;;;9.43;100.00;100384.69;4857077;29;20030;-89
2024/03/06 12:49:39;;;;;;;24.45;3.65;;;;;;;9.38;100.00;100386.91;4857633;29;20132;-91
2024/03/06 12:52:22;;;;;;;30.65;4.45;;;;;;;9.40;100.00;100379.69;4845317;29;20033;-88
2024/03/06 12:55:05;;;;;;;23.48;3.58;;;;;;;9.47;100.00;100381.78;4864696;29;20040;-89
2024/03/06 12:57:47;;;;;;;20.50;2.97;;;;;;;9.46;100.00;100380.13;4845066;29;20071;-92
2024/03/06 13:00:21;;;;;;;27.98;3.65;;;;;;;9.48;100.00;100380.81;4843765;29;20040;-92
2024/03/06 13:02:58;;;;;;;24.13;3.50;;;;;;;9.54;100.00;100382.88;4856318;29;20038;-96
2024/03/06 13:06:15;;;;;;;;;;;;;;;;;;;;;
2024/03/06 13:12:10;;;;;;;23.48;3.90;;;;;;;9.75;100.00;100382.75;4861247;29;20101;-95
2024/03/06 13:14:41;;;;;;;21.73;3.78;;;;;;;9.68;100.00;100371.09;4844379;29;20051;-88
2024/03/06 13:17:13;;;;;;;34.28;4.97;;;;;;;9.70;100.00;100371.75;4859418;29;20545;-93
2024/03/06 13:22:57;;;;;;;24.40;3.20;;;;;;;9.75;100.00;100379.25;4858665;29;20060;-93
2024/03/06 13:25:25;;;;;;;28.35;3.75;;;;;;;9.70;100.00;100368.31;4854443;29;20048;-91
2024/03/06 13:28:08;;;;;;;;;;;;;;;;;;;;;
2024/03/06 13:30:38;;;;;;;20.30;3.55;;;;;;;9.53;100.00;100354.84;4859495;29;20037;-90
2024/03/06 13:33:40;;;;;;;27.17;3.88;;;;;;;9.52;100.00;100361.91;4853591;29;20042;-94
2024/03/06 13:40:00;;;;;;;28.95;3.85;;;;;;;9.47;100.00;100364.16;4852641;29;20041;-95
2024/03/06 13:43:10;;;;;;;31.20;3.67;;;;;;;9.57;100.00;100368.59;4821759;29;20050;-89
2024/03/06 13:46:11;;;;;;;24.52;3.85;;;;;;;9.54;100.00;100365.25;4833775;29;20101;-95
2024/03/06 13:48:40;;;;;;;28.83;3.72;;;;;;;9.61;100.00;100370.81;4755501;30;20044;-92
2024/03/06 13:51:10;;;;;;;23.23;3.45;;;;;;;9.67;100.00;100364.13;4844794;29;20037;-91
2024/03/06 13:53:43;;;;;;;25.90;3.65;;;;;;;9.67;100.00;100358.84;4864006;29;20037;-91
2024/03/06 13:56:41;;;;;;;27.20;4.30;;;;;;;9.77;100.00;100350.94;4858643;29;20044;-92
2024/03/06 13:59:29;;;;;;;23.52;3.08;;;;;;;9.81;100.00;100357.56;4867277;29;20034;-89
2024/03/06 14:01:55;;;;;;;23.92;4.55;;;;;;;9.93;100.00;100356.47;4829308;29;20041;-93
2024/03/06 15:15:41;;;;;;;30.88;3.80;;;;;;;9.87;100.00;100343.84;4876650;29;20052;-90
2024/03/06 15:24:29;;;;;;;;;;;;;;;;;;;;;
2024/03/06 16:27:17;;;;;;;20.10;3.03;;;;;;;9.58;100.00;100347.34;5922484;23;20082;31
2024/03/06 16:56:26;;;;;;;25.73;3.42;;;;;;;9.52;100.00;100354.00;4795384;29;20046;-96
2024/03/06 17:02:36;;;;;;;16.15;2.47;;;;;;;9.52;100.00;100363.75;4887859;24;20265;-88
2024/03/06 17:06:03;;;;;;;14.20;2.10;;;;;;;9.39;100.00;100353.47;4880304;24;20050;-89
2024/03/06 17:08:41;;;;;;;18.60;2.25;;;;;;;9.40;100.00;100368.31;4854350;29;20053;-87
2024/03/06 17:11:11;;;;;;;16.25;3.03;;;;;;;9.41;100.00;100360.25;4868581;29;20033;-88
2024/03/06 17:20:54;;;;;;;16.33;2.05;;;;;;;9.39;100.00;100370.13;4803929;29;20050;-89
2024/03/06 17:24:09;;;;;;;17.90;2.00;;;;;;;9.38;100.00;100365.00;4828908;29;20053;-94
2024/03/06 17:27:11;;;;;;;12.82;1.92;;;;;;;9.38;100.00;100365.81;4843654;29;20042;-91
2024/03/06 17:29:56;;;;;;;12.70;2.33;;;;;;;9.35;100.00;100366.09;4859703;29;20555;-93
2024/03/06 17:32:51;;;;;;;14.70;2.10;;;;;;;9.37;100.00;100377.34;4852017;29;20044;-87
2024/03/06 17:35:24;;;;;;;12.85;1.85;;;;;;;9.39;100.00;100388.59;4837474;29;20121;-93
2024/03/06 17:38:05;;;;;;;13.48;1.60;;;;;;;9.36;100.00;100372.19;4850833;29;20349;-92
2024/03/06 17:40:34;;;;;;;18.10;1.88;;;;;;;9.36;100.00;100382.75;4847821;29;20055;-94
2024/03/06 17:43:40;;;;;;;8.77;1.70;;;;;;;9.38;100.00;100386.09;4842095;29;20049;-91
2024/03/06 17:46:14;;;;;;;7.03;1.27;;;;;;;9.26;100.00;100388.00;4839888;29;20045;-94
2024/03/06 17:48:49;;;;;;;8.43;1.40;;;;;;;9.32;100.00;100389.28;4864585;29;20049;-93
2024/03/06 17:51:15;;;;;;;9.55;1.63;;;;;;;9.34;100.00;100405.78;4892222;29;20126;-93
2024/03/06 17:53:45;;;;;;;7.60;1.63;;;;;;;9.37;100.00;100400.22;4846344;29;20037;-88
2024/03/06 17:56:18;;;;;;;15.13;1.83;;;;;;;9.32;100.00;100405.91;4849976;29;20029;-91
2024/03/06 17:58:49;;;;;;;8.25;1.60;;;;;;;9.35;100.00;100408.28;4863247;29;20045;-91
2024/03/06 18:01:22;;;;;;;11.07;2.20;;;;;;;9.33;100.00;100412.03;4886307;29;20045;-86
2024/03/06 18:03:50;;;;;;;12.48;2.00;;;;;;;9.28;100.00;100407.19;4872865;29;20539;-92
2024/03/06 18:06:20;;;;;;;10.70;1.85;;;;;;;9.37;100.00;100408.16;4857740;29;20046;-92
2024/03/06 18:09:03;;;;;;;9.00;1.67;;;;;;;9.35;100.00;100410.13;4848476;29;20496;-91
2024/03/06 18:11:42;;;;;;;7.30;1.70;;;;;;;9.27;100.00;100408.97;4828588;29;20056;-89
2024/03/06 18:14:34;;;;;;;7.13;1.52;;;;;;;9.30;100.00;100419.25;4855009;29;20045;-93
2024/03/06 18:17:00;;;;;;;9.18;1.55;;;;;;;9.27;100.00;100414.25;4849592;29;20025;-88
2024/03/06 18:19:45;;;;;;;11.10;1.95;;;;;;;9.32;100.00;100427.03;4876490;29;20279;-93
2024/03/06 18:22:10;;;;;;;10.38;2.15;;;;;;;9.26;100.00;100425.78;4860432;29;20132;-86
2024/03/06 18:24:36;;;;;;;13.88;1.80;;;;;;;9.24;100.00;100426.88;4863111;29;20476;-89
2024/03/06 18:27:26;;;;;;;;;;;;;;;;;;;;;
2024/03/06 18:30:22;;;;;;;12.95;1.83;;;;;;;9.29;100.00;100427.31;4881562;29;20101;-93
2024/03/06 18:33:01;;;;;;;12.90;1.58;;;;;;;9.23;100.00;100418.13;4824217;29;20045;-94
2024/03/06 18:36:41;;;;;;;12.77;1.88;;;;;;;9.22;100.00;100427.00;4856505;29;20116;-89
2024/03/06 18:42:32;;;;;;;11.32;1.63;;;;;;;9.22;100.00;100444.66;4892409;29;20045;-93
2024/03/06 18:45:14;;;;;;;10.68;1.88;;;;;;;9.22;100.00;100453.38;4833711;29;20040;-90
2024/03/06 18:48:06;;;;;;;18.27;2.17;;;;;;;9.17;100.00;100453.78;4851278;29;20113;-94
2024/03/06 18:50:55;;;;;;;17.90;2.47;;;;;;;9.15;100.00;100446.97;4888225;29;20037;-90
2024/03/06 18:54:08;;;;;;;15.48;2.30;;;;;;;9.15;100.00;100466.28;4841841;29;20110;-95
2024/03/06 18:56:40;;;;;;;18.88;3.05;;;;;;;9.07;100.00;100460.84;4862928;29;20041;-92
2024/03/06 19:05:30;;;;;;;16.35;2.47;;;;;;;9.04;100.00;100453.22;4850292;29;20044;-93
2024/03/06 19:07:57;;;;;;;23.45;3.05;;;;;;;9.05;100.00;100462.78;4844379;29;20042;-89
2024/03/06 19:10:43;;;;;;;13.20;1.90;;;;;;;9.04;100.00;100467.22;4871878;29;20041;-91
2024/03/06 19:13:13;;;;;;;18.15;2.75;;;;;;;8.97;100.00;100470.50;4846807;29;20030;-94
2024/03/06 19:16:11;;;;;;;14.82;2.90;;;;;;;9.08;100.00;100485.41;4823824;29;20044;-91
2024/03/06 19:18:56;;;;;;;19.63;2.22;;;;;;;9.00;100.00;100476.34;4772131;30;20137;-93
2024/03/06 19:22:28;;;;;;;19.95;3.05;;;;;;;8.97;100.00;100474.00;4740288;29;20052;-89
2024/03/06 19:25:18;;;;;;;18.00;2.60;;;;;;;8.99;100.00;100482.59;4786419;29;20165;-86
2024/03/06 19:27:50;;;;;;;11.90;2.03;;;;;;;8.96;100.00;100485.50;4763780;29;20104;-91
2024/03/06 19:30:53;;;;;;;15.25;2.65;;;;;;;8.96;100.00;100477.59;4830541;29;20124;-91
2024/03/06 19:33:36;;;;;;;22.33;2.80;;;;;;;8.95;100.00;100491.72;4858219;29;20090;-89
2024/03/06 19:36:21;;;;;;;16.30;2.42;;;;;;;8.94;100.00;100482.16;4866615;29;20164;-91
2024/03/06 19:39:22;;;;;;;;;;;;;;;;;;;;;
2024/03/06 19:42:53;;;;;;;14.75;2.22;;;;;;;8.98;100.00;100490.66;4877762;29;20061;-89
2024/03/06 19:45:21;;;;;;;19.33;3.17;;;;;;;8.88;100.00;100496.72;4873799;29;20465;-87
2024/03/06 19:47:47;;;;;;;12.98;2.17;;;;;;;8.95;100.00;100501.47;4827279;29;20160;-89
2024/03/06 19:50:13;;;;;;;17.75;3.33;;;;;;;8.92;100.00;100505.19;4876006;29;20140;-89
2024/03/06 19:53:31;;;;;;;19.10;2.78;;;;;;;8.99;100.00;100508.97;4860130;29;20033;-91
2024/03/06 20:00:10;;;;;;;17.42;2.90;;;;;;;8.99;100.00;100508.13;4858016;29;20048;-90
2024/03/06 20:03:30;;;;;;;28.65;4.95;;;;;;;8.98;100.00;100511.75;4834319;29;20315;-93